createdAt,value
2024-02-29T00:01:23.337Z,97.3
2024-02-29T00:02:53.875Z,96.9
2024-02-29T00:04:24.290Z,97.3
2024-02-29T00:05:54.703Z,96.8
2024-02-29T00:07:25.132Z,97.3
2024-02-29T00:08:55.551Z,97.6
2024-02-29T00:10:25.979Z,97.7
2024-02-29T00:11:56.408Z,97.3
2024-02-29T00:13:27.008Z,97.1
2024-02-29T00:14:57.479Z,97
2024-02-29T00:16:27.951Z,97.1
2024-02-29T00:17:58.461Z,97
2024-02-29T00:19:29.041Z,97
2024-02-29T00:20:59.520Z,97.2
2024-02-29T00:22:29.954Z,97
2024-02-29T00:24:00.467Z,97.3
2024-02-29T00:25:30.878Z,97.1
2024-02-29T00:27:01.475Z,97.3
2024-02-29T00:28:32.022Z,97.5
2024-02-29T00:30:02.495Z,97
2024-02-29T00:31:32.971Z,97.1
2024-02-29T00:33:03.461Z,97.2
2024-02-29T00:34:34.014Z,97.2
2024-02-29T00:36:10.928Z,97.2
2024-02-29T00:37:41.403Z,97.1
2024-02-29T00:39:15.019Z,97.2
2024-02-29T00:40:45.962Z,96.9
2024-02-29T00:42:16.644Z,97.2
2024-02-29T00:43:47.085Z,97.2
2024-02-29T00:45:17.551Z,97.5
2024-02-29T00:46:48.028Z,97.5
2024-02-29T00:48:18.448Z,97.1
2024-02-29T00:49:48.881Z,97.2
2024-02-29T00:51:19.329Z,97.3
2024-02-29T00:52:50.112Z,97.3
2024-02-29T00:54:20.540Z,97.1
2024-02-29T00:55:50.959Z,97.2
2024-02-29T00:57:21.395Z,97.4
2024-02-29T00:58:51.900Z,97.3
2024-02-29T01:00:22.319Z,96.9
2024-02-29T01:01:52.939Z,97.3
2024-02-29T01:03:23.566Z,97.1
2024-02-29T01:04:54.049Z,97
2024-02-29T01:06:24.535Z,97.4
2024-02-29T01:07:54.941Z,97.2
2024-02-29T01:09:25.401Z,97.1
2024-02-29T01:10:55.912Z,97.6
2024-02-29T01:12:26.368Z,97.3
2024-02-29T01:13:56.825Z,97.2
2024-02-29T01:15:27.280Z,97
2024-02-29T01:16:57.760Z,97.2
2024-02-29T01:18:28.176Z,97.3
2024-02-29T01:19:58.717Z,97
2024-02-29T01:21:29.154Z,97.5
2024-02-29T01:22:59.542Z,97.5
2024-02-29T01:24:30.017Z,97.3
2024-02-29T01:26:00.484Z,96.8
2024-02-29T01:27:31.102Z,97
2024-02-29T01:29:01.656Z,97.7
2024-02-29T01:30:32.245Z,97.1
2024-02-29T01:32:18.302Z,97
2024-02-29T01:33:57.942Z,97.5
2024-02-29T01:35:28.400Z,97.6
2024-02-29T01:36:58.902Z,97.6
2024-02-29T01:38:29.381Z,97
2024-02-29T01:39:59.847Z,97.2
2024-02-29T01:41:30.393Z,97.3
2024-02-29T01:43:17.786Z,97.1
2024-02-29T01:44:48.335Z,97.2
2024-02-29T01:46:18.747Z,97.2
2024-02-29T01:47:49.241Z,97.3
2024-02-29T01:49:19.689Z,97.1
2024-02-29T01:50:50.109Z,97.2
2024-02-29T01:52:20.536Z,97.1
2024-02-29T01:53:50.975Z,97.5
2024-02-29T01:55:21.417Z,97.1
2024-02-29T01:56:51.905Z,97.3
2024-02-29T01:58:22.859Z,97.1
2024-02-29T01:59:53.246Z,97.1
2024-02-29T02:01:23.859Z,97.2
2024-02-29T02:02:54.410Z,97.2
2024-02-29T02:04:24.822Z,97
2024-02-29T02:05:55.257Z,97.3
2024-02-29T02:07:25.665Z,97.3
2024-02-29T02:08:56.083Z,97.3
2024-02-29T02:10:26.490Z,97.5
2024-02-29T02:11:56.927Z,97
2024-02-29T02:13:27.455Z,97.4
2024-02-29T02:14:57.982Z,97.2
2024-02-29T02:16:28.390Z,97.6
2024-02-29T02:17:58.888Z,97.2
2024-02-29T02:19:29.434Z,97.3
2024-02-29T02:20:59.878Z,97.9
2024-02-29T02:22:30.372Z,97.3
2024-02-29T02:24:00.908Z,97.7
2024-02-29T02:25:31.339Z,97.3
2024-02-29T02:27:01.841Z,97.3
2024-02-29T02:28:32.438Z,97.5
2024-02-29T02:30:02.927Z,97.3
2024-02-29T02:31:33.402Z,97.5
2024-02-29T02:33:03.999Z,97.3
2024-02-29T02:34:34.603Z,97.3
2024-02-29T02:36:05.066Z,97.4
2024-02-29T02:37:35.491Z,97.3
2024-02-29T02:39:05.962Z,97.6
2024-02-29T02:40:36.469Z,97.1
2024-02-29T02:42:06.954Z,97.4
2024-02-29T02:43:37.418Z,97.2
2024-02-29T02:45:07.831Z,97.3
2024-02-29T02:46:38.318Z,97.5
2024-02-29T02:48:08.825Z,97.1
2024-02-29T02:49:39.268Z,97.4
2024-02-29T02:51:10.247Z,97.2
2024-02-29T02:52:40.713Z,97.4
2024-02-29T02:54:11.182Z,97.2
2024-02-29T02:55:41.715Z,97.5
2024-02-29T02:57:12.184Z,97.7
2024-02-29T02:58:42.960Z,97.7
2024-02-29T03:00:13.367Z,97.7
2024-02-29T03:03:23.653Z,97.8
2024-02-29T03:04:54.165Z,97.3
2024-02-29T03:06:24.625Z,97.9
2024-02-29T03:07:55.171Z,97.7
2024-02-29T03:09:25.679Z,97.2
2024-02-29T03:10:56.256Z,97.8
2024-02-29T03:12:26.716Z,97.4
2024-02-29T03:13:57.324Z,97.6
2024-02-29T03:15:27.805Z,97.8
2024-02-29T03:16:58.286Z,97.7
2024-02-29T03:18:28.813Z,97.2
2024-02-29T03:19:59.330Z,97
2024-02-29T03:21:29.849Z,97.2
2024-02-29T03:23:00.393Z,97.6
2024-02-29T03:24:30.997Z,97.6
2024-02-29T03:26:01.426Z,97.2
2024-02-29T03:27:31.880Z,97.3
2024-02-29T03:29:02.397Z,97.2
2024-02-29T03:30:32.983Z,97.9
2024-02-29T03:32:03.675Z,97.9
2024-02-29T03:33:34.182Z,97.7
2024-02-29T03:35:04.703Z,97.5
2024-02-29T03:36:35.302Z,97.9
2024-02-29T03:38:05.805Z,97.7
2024-02-29T03:39:36.281Z,97.5
2024-02-29T03:41:06.781Z,97.4
2024-02-29T03:42:37.508Z,97.6
2024-02-29T03:44:08.639Z,97.4
2024-02-29T03:45:39.108Z,97.5
2024-02-29T03:47:09.665Z,97.5
2024-02-29T03:48:40.134Z,97.4
2024-02-29T03:50:10.606Z,97.9
2024-02-29T03:51:41.091Z,97.9
2024-02-29T03:53:11.646Z,97.5
2024-02-29T03:54:42.162Z,97.8
2024-02-29T03:56:12.601Z,97.7
2024-02-29T03:57:43.171Z,97.8
2024-02-29T03:59:13.757Z,97.6
2024-02-29T04:00:44.304Z,97.5
2024-02-29T04:02:14.876Z,97.8
2024-02-29T04:03:45.376Z,98
2024-02-29T04:05:15.841Z,97.9
2024-02-29T04:06:46.408Z,97.6
2024-02-29T04:08:16.992Z,97.9
2024-02-29T04:09:47.465Z,97.5
2024-02-29T04:11:18.091Z,97.5
2024-02-29T04:12:48.714Z,97.9
2024-02-29T04:14:19.357Z,97.9
2024-02-29T04:15:51.406Z,97.9
2024-02-29T04:17:21.965Z,97.8
2024-02-29T04:18:52.446Z,97.7
2024-02-29T04:20:22.998Z,97.6
2024-02-29T04:21:53.486Z,97.5
2024-02-29T04:23:23.971Z,96.9
2024-02-29T04:24:54.522Z,98
2024-02-29T04:26:24.992Z,97.7
2024-02-29T04:27:55.481Z,97.7
2024-02-29T04:29:26.062Z,97.7
2024-02-29T04:30:56.636Z,97.5
2024-02-29T04:32:27.100Z,97.5
2024-02-29T04:33:57.566Z,97.7
2024-02-29T04:35:28.022Z,97.7
2024-02-29T04:36:58.587Z,97.4
2024-02-29T04:38:29.088Z,97.6
2024-02-29T04:39:59.662Z,98
2024-02-29T04:41:30.312Z,97.9
2024-02-29T04:43:00.750Z,97.7
2024-02-29T04:44:31.332Z,97.6
2024-02-29T04:46:01.832Z,97.8
2024-02-29T04:47:32.431Z,97.6
2024-02-29T04:49:02.968Z,97.6
2024-02-29T04:50:33.488Z,97.9
2024-02-29T04:52:03.974Z,97.5
2024-02-29T04:53:51.510Z,97.6
2024-02-29T04:55:22.000Z,98.1
2024-02-29T04:56:52.569Z,97.4
2024-02-29T04:58:22.965Z,97.7
2024-02-29T04:59:53.463Z,97.5
2024-02-29T05:01:24.114Z,97.3
2024-02-29T05:02:54.656Z,97.4
2024-02-29T05:04:25.102Z,98
2024-02-29T05:05:55.631Z,98.1
2024-02-29T05:07:26.214Z,97.6
2024-02-29T05:08:56.630Z,97.5
2024-02-29T05:10:27.058Z,97.8
2024-02-29T05:11:57.470Z,97.9
2024-02-29T05:13:27.931Z,97
2024-02-29T05:14:58.493Z,97.9
2024-02-29T05:16:28.937Z,97.5
2024-02-29T05:17:59.365Z,97.3
2024-02-29T05:19:30.082Z,97.6
2024-02-29T05:21:00.549Z,97.8
2024-02-29T05:22:31.020Z,97.4
2024-02-29T05:24:01.456Z,97.6
2024-02-29T05:25:31.893Z,97.6
2024-02-29T05:27:02.432Z,98.1
2024-02-29T05:28:32.907Z,98.1
2024-02-29T05:30:03.398Z,97.5
2024-02-29T05:31:33.869Z,97.9
2024-02-29T05:33:04.352Z,97.8
2024-02-29T05:34:34.896Z,97.8
2024-02-29T05:36:05.325Z,97.8
2024-02-29T05:37:35.729Z,97.7
2024-02-29T05:39:06.153Z,97.8
2024-02-29T05:40:36.679Z,97.7
2024-02-29T05:42:07.309Z,97.8
2024-02-29T05:43:37.768Z,97.6
2024-02-29T05:45:08.411Z,98.1
2024-02-29T05:46:38.976Z,97.6
2024-02-29T05:48:09.545Z,97.7
2024-02-29T05:49:40.118Z,97.9
2024-02-29T05:51:10.688Z,97.3
2024-02-29T05:52:41.275Z,97.9
2024-02-29T05:54:11.709Z,97.9
2024-02-29T05:55:42.102Z,97.8
2024-02-29T05:57:12.576Z,97.6
2024-02-29T05:58:43.068Z,97.5
2024-02-29T06:00:13.765Z,97.7
2024-02-29T06:01:44.292Z,97.8
2024-02-29T06:03:14.828Z,97.8
2024-02-29T06:04:45.245Z,97.2
2024-02-29T06:06:15.669Z,97.6
2024-02-29T06:07:46.211Z,97.7
2024-02-29T06:09:16.708Z,97.8
2024-02-29T06:10:47.145Z,97.9
2024-02-29T06:12:17.879Z,97.8
2024-02-29T06:13:48.373Z,97.7
2024-02-29T06:15:18.877Z,97.5
2024-02-29T06:16:49.328Z,97.5
2024-02-29T06:18:19.789Z,97.7
2024-02-29T06:19:50.267Z,97.7
2024-02-29T06:21:20.683Z,97.5
2024-02-29T06:22:51.129Z,97.6
2024-02-29T06:24:21.622Z,97.7
2024-02-29T06:25:52.199Z,97.7
2024-02-29T06:27:22.670Z,97.8
2024-02-29T06:28:53.094Z,97.5
2024-02-29T06:30:23.583Z,97.7
2024-02-29T06:31:54.056Z,97.7
2024-02-29T06:33:24.450Z,97.2
2024-02-29T06:34:54.873Z,97.4
2024-02-29T06:36:25.413Z,97.8
2024-02-29T06:37:55.943Z,97.5
2024-02-29T06:39:26.455Z,97.6
2024-02-29T06:40:57.015Z,97.5
2024-02-29T06:41:15.671Z,97.6
2024-02-29T06:42:46.189Z,97.7
2024-02-29T06:44:16.649Z,97.7
2024-02-29T06:45:47.265Z,97.8
2024-02-29T06:47:17.799Z,97.5
2024-02-29T06:48:48.263Z,97.8
2024-02-29T06:50:18.785Z,97.7
2024-02-29T06:51:49.425Z,97.3
2024-02-29T06:53:19.883Z,97.9
2024-02-29T06:54:50.367Z,97.4
2024-02-29T06:56:20.837Z,97.6
2024-02-29T06:57:51.406Z,97.9
2024-02-29T06:59:21.991Z,97.6
2024-02-29T07:00:52.814Z,97.1
2024-02-29T07:02:23.433Z,97.6
2024-02-29T07:03:53.895Z,97.8
2024-02-29T07:05:24.381Z,97.7
2024-02-29T07:06:54.848Z,97.2
2024-02-29T07:08:25.415Z,97.5
2024-02-29T07:09:55.933Z,97.6
2024-02-29T07:11:26.599Z,97.3
2024-02-29T07:12:57.194Z,97.3
2024-02-29T07:14:27.840Z,97.8
2024-02-29T07:15:58.539Z,97.5
2024-02-29T07:17:29.169Z,97.7
2024-02-29T07:18:59.879Z,97.7
2024-02-29T07:20:30.459Z,97.4
2024-02-29T07:22:00.960Z,97.5
2024-02-29T07:23:31.478Z,97.6
2024-02-29T07:25:02.043Z,97.7
2024-02-29T07:26:32.612Z,97.9
2024-02-29T07:28:03.090Z,97.5
2024-02-29T07:29:33.767Z,97.4
2024-02-29T07:31:04.562Z,96.9
2024-02-29T07:32:35.177Z,97.4
2024-02-29T07:34:05.828Z,97.5
2024-02-29T07:35:36.358Z,97.4
2024-02-29T07:37:06.884Z,97.6
2024-02-29T07:38:37.519Z,97.5
2024-02-29T07:40:08.118Z,97.5
2024-02-29T07:41:38.880Z,97.6
2024-02-29T07:43:10.813Z,97.1
2024-02-29T07:44:41.233Z,97.1
2024-02-29T07:46:11.751Z,97.2
2024-02-29T07:47:42.562Z,97.2
2024-02-29T07:49:13.178Z,97.3
2024-02-29T07:50:43.968Z,97.3
2024-02-29T07:52:14.523Z,97.1
2024-02-29T07:53:45.102Z,97.6
2024-02-29T07:55:16.041Z,97.4
2024-02-29T07:56:46.709Z,97.7
2024-02-29T07:58:17.230Z,97.5
2024-02-29T07:59:47.798Z,97.3
2024-02-29T08:01:18.419Z,97.7
2024-02-29T08:02:49.053Z,97.5
2024-02-29T08:04:19.788Z,97.2
2024-02-29T08:05:50.298Z,97.2
2024-02-29T08:07:20.926Z,96.9
2024-02-29T08:08:51.552Z,97
2024-02-29T08:10:22.067Z,97.2
2024-02-29T08:11:52.785Z,97.2
2024-02-29T08:13:23.483Z,97.3
2024-02-29T08:14:54.044Z,97.6
2024-02-29T08:16:24.765Z,97.5
2024-02-29T08:17:55.334Z,97.4
2024-02-29T08:19:26.179Z,97.2
2024-02-29T08:20:56.856Z,97.1
2024-02-29T08:22:27.544Z,97
2024-02-29T08:23:58.204Z,97.2
2024-02-29T08:25:29.035Z,96.6
2024-02-29T08:26:59.476Z,97.2
2024-02-29T08:28:29.920Z,96.9
2024-02-29T08:30:00.459Z,97.1
2024-02-29T08:33:18.544Z,96.7
2024-02-29T08:34:49.106Z,97
2024-02-29T08:36:19.584Z,96.8
2024-02-29T08:37:50.017Z,96.8
2024-02-29T08:39:21.669Z,96.6
2024-02-29T08:40:52.225Z,96.9
2024-02-29T08:42:22.703Z,97
2024-02-29T08:43:53.142Z,96.9
2024-02-29T08:45:24.204Z,96.8
2024-02-29T08:46:54.822Z,96.7
2024-02-29T08:48:25.313Z,96.7
2024-02-29T08:49:55.739Z,97
2024-02-29T08:51:26.139Z,97.3
2024-02-29T08:52:56.568Z,96.6
2024-02-29T08:54:27.129Z,96.8
2024-02-29T08:55:57.613Z,97
2024-02-29T08:57:28.022Z,96.7
2024-02-29T08:58:58.496Z,96.9
2024-02-29T09:00:29.029Z,96.8
2024-02-29T09:03:27.651Z,96.6
2024-02-29T09:04:58.188Z,96.8
2024-02-29T09:06:38.734Z,96.6
2024-02-29T09:08:11.841Z,96.8
2024-02-29T09:09:42.373Z,96.7
2024-02-29T09:11:12.943Z,96.7
2024-02-29T09:12:43.568Z,96.8
2024-02-29T09:14:14.022Z,96.8
2024-02-29T09:15:44.489Z,96.8
2024-02-29T09:17:14.983Z,97.1
2024-02-29T09:18:45.578Z,96.7
2024-02-29T09:20:16.110Z,97.3
2024-02-29T09:21:46.591Z,96.6
2024-02-29T09:23:17.184Z,97
2024-02-29T09:24:47.732Z,97.1
2024-02-29T09:26:18.301Z,97
2024-02-29T09:27:48.839Z,97.2
2024-02-29T09:29:19.348Z,97.2
2024-02-29T09:30:52.256Z,96.9
2024-02-29T09:32:22.752Z,96.4
2024-02-29T09:33:53.356Z,96.6
2024-02-29T09:35:23.803Z,97.2
2024-02-29T09:36:54.271Z,97.3
2024-02-29T09:38:24.733Z,96.8
2024-02-29T09:39:55.166Z,96.7
2024-02-29T09:41:50.859Z,96.7
2024-02-29T09:43:43.924Z,96.6
2024-02-29T09:45:14.345Z,96.8
2024-02-29T09:46:44.780Z,96.6
2024-02-29T09:48:15.337Z,96.6
2024-02-29T09:49:53.618Z,96.5
2024-02-29T09:51:34.872Z,96.4
2024-02-29T09:53:05.389Z,96.5
2024-02-29T09:54:36.077Z,96.8
2024-02-29T09:56:06.545Z,96.7
2024-02-29T09:57:37.112Z,96.5
2024-02-29T09:59:07.585Z,96.7
2024-02-29T10:00:38.188Z,96.7
2024-02-29T10:02:09.132Z,96.7
2024-02-29T10:03:39.739Z,96.7
2024-02-29T10:05:10.225Z,96.7
2024-02-29T10:06:41.380Z,96.9
2024-02-29T10:08:11.942Z,96.4
2024-02-29T10:09:42.449Z,96.9
2024-02-29T10:11:13.255Z,96.6
2024-02-29T10:12:43.995Z,96.5
2024-02-29T10:14:14.575Z,96.4
2024-02-29T10:15:45.125Z,96.6
2024-02-29T10:17:15.673Z,96.6
2024-02-29T10:18:46.285Z,96.5
2024-02-29T10:20:16.818Z,96.9
2024-02-29T10:21:47.377Z,96.7
2024-02-29T10:23:17.996Z,96.5
2024-02-29T10:24:48.451Z,96.3
2024-02-29T10:26:19.040Z,96.5
2024-02-29T10:27:49.480Z,96.2
2024-02-29T10:29:21.403Z,96.6
2024-02-29T10:30:54.582Z,96.5
2024-02-29T10:32:25.270Z,96.5
2024-02-29T10:33:55.817Z,96.4
2024-02-29T10:35:26.305Z,96.6
2024-02-29T10:36:57.076Z,96.4
2024-02-29T10:38:27.631Z,96.5
2024-02-29T10:39:58.103Z,96.3
2024-02-29T10:41:28.560Z,96.5
2024-02-29T10:42:59.286Z,96.3
2024-02-29T10:44:29.710Z,96.4
2024-02-29T10:46:00.206Z,96.5
2024-02-29T10:47:30.931Z,96.5
2024-02-29T10:49:01.450Z,96.4
2024-02-29T10:50:32.173Z,96.2
2024-02-29T10:52:02.706Z,96.4
2024-02-29T10:55:20.859Z,96.4
2024-02-29T10:56:51.757Z,96.1
2024-02-29T10:58:22.470Z,96.7
2024-02-29T10:59:53.068Z,96.4
2024-02-29T11:01:23.565Z,96.3
2024-02-29T11:02:58.332Z,96.7
2024-02-29T11:04:29.027Z,96.8
2024-02-29T11:05:59.692Z,96.7
2024-02-29T11:07:30.170Z,96.4
2024-02-29T11:09:00.820Z,96.4
2024-02-29T11:10:31.461Z,96.5
2024-02-29T11:12:01.958Z,96.5
2024-02-29T11:13:32.459Z,96.5
2024-02-29T11:15:02.892Z,96.5
2024-02-29T11:16:33.354Z,96.3
2024-02-29T11:18:03.912Z,96.4
2024-02-29T11:19:48.331Z,96.5
2024-02-29T11:21:27.148Z,96.4
2024-02-29T11:23:06.176Z,96.3
2024-02-29T11:24:41.545Z,96.5
2024-02-29T11:26:12.259Z,96.3
2024-02-29T11:27:42.805Z,96.7
2024-02-29T11:29:13.423Z,96.7
2024-02-29T11:30:43.945Z,96.5
2024-02-29T11:32:14.442Z,96.4
2024-02-29T11:33:45.027Z,96.7
2024-02-29T11:35:15.593Z,96.5
2024-02-29T11:36:46.258Z,96.4
2024-02-29T11:38:29.033Z,96.4
2024-02-29T11:40:10.102Z,96.3
2024-02-29T11:41:40.684Z,96.3
2024-02-29T11:43:11.282Z,96.2
2024-02-29T11:44:41.829Z,96.3
2024-02-29T11:46:12.510Z,96.5
2024-02-29T11:47:43.149Z,96.3
2024-02-29T11:49:13.657Z,96.6
2024-02-29T11:50:44.214Z,96.4
2024-02-29T11:52:14.841Z,96.4
2024-02-29T11:53:45.372Z,96.4
2024-02-29T11:55:15.872Z,96.1
2024-02-29T11:56:46.293Z,96.3
2024-02-29T11:58:16.785Z,96.3
2024-02-29T11:59:47.356Z,96.5
2024-02-29T12:01:18.407Z,96.2
2024-02-29T12:02:49.010Z,96.2
2024-02-29T12:04:19.585Z,96.3
2024-02-29T12:05:50.150Z,96.5
2024-02-29T12:07:20.863Z,96.3
2024-02-29T12:08:51.528Z,96.2
2024-02-29T12:10:24.691Z,96.3
2024-02-29T12:11:55.245Z,96.3
2024-02-29T12:13:25.808Z,96.4
2024-02-29T12:14:56.278Z,96.3
2024-02-29T12:16:26.887Z,96.3
2024-02-29T12:17:57.658Z,96.4
2024-02-29T12:19:28.210Z,96.5
2024-02-29T12:20:58.762Z,96.6
2024-02-29T12:22:29.632Z,96.6
2024-02-29T12:24:00.226Z,96.5
2024-02-29T12:25:30.804Z,96.4
2024-02-29T12:27:01.381Z,96.1
2024-02-29T12:28:32.057Z,96.3
2024-02-29T12:30:02.505Z,96.4
2024-02-29T12:31:32.928Z,96.1
2024-02-29T12:33:03.440Z,96.4
2024-02-29T12:34:34.263Z,96.4
2024-02-29T12:36:05.087Z,96.2
2024-02-29T12:37:35.865Z,96.5
2024-02-29T12:39:06.469Z,96.2
2024-02-29T12:40:36.966Z,96.2
2024-02-29T12:42:26.261Z,96.3
2024-02-29T12:43:56.683Z,96.2
2024-02-29T12:45:27.088Z,96.5
2024-02-29T12:46:57.736Z,96.4
2024-02-29T12:48:28.386Z,96
2024-02-29T12:49:58.866Z,96.4
2024-02-29T12:51:29.323Z,96.3
2024-02-29T12:53:00.071Z,96.2
2024-02-29T12:54:30.676Z,96.1
2024-02-29T12:56:01.189Z,96.3
2024-02-29T12:57:31.722Z,96.3
2024-02-29T12:59:02.246Z,96.1
2024-02-29T13:00:32.791Z,96.6
2024-02-29T13:02:03.728Z,96.1
2024-02-29T13:03:34.734Z,96.3
2024-02-29T13:05:05.230Z,96.2
2024-02-29T13:06:35.802Z,96.3
2024-02-29T13:08:06.425Z,96.3
2024-02-29T13:09:36.995Z,96.4
2024-02-29T13:11:07.880Z,96.2
2024-02-29T13:12:38.471Z,96.1
2024-02-29T13:14:08.967Z,96.3
2024-02-29T13:15:39.457Z,96.7
2024-02-29T13:17:10.011Z,95.9
2024-02-29T13:18:40.498Z,96.1
2024-02-29T13:20:10.961Z,96.4
2024-02-29T13:21:41.422Z,96.5
2024-02-29T13:23:11.979Z,96.1
2024-02-29T13:24:42.563Z,96.1
2024-02-29T13:26:13.135Z,96.3
2024-02-29T13:27:43.715Z,96
2024-02-29T13:29:14.327Z,96.1
2024-02-29T13:30:44.933Z,96.3
2024-02-29T13:32:15.542Z,96.6
2024-02-29T13:33:46.095Z,96.3
2024-02-29T13:35:16.691Z,96
2024-02-29T13:36:47.176Z,96.4
2024-02-29T13:38:17.909Z,96.2
2024-02-29T13:39:48.637Z,96
2024-02-29T13:41:19.194Z,96.1
2024-02-29T13:42:49.721Z,96.2
2024-02-29T13:44:20.346Z,96.7
2024-02-29T13:45:50.895Z,96.1
2024-02-29T13:47:21.391Z,96.2
2024-02-29T13:48:51.875Z,96.4
2024-02-29T13:50:23.291Z,96.1
2024-02-29T13:51:53.815Z,96.3
2024-02-29T13:53:24.461Z,96.4
2024-02-29T13:54:55.252Z,96.1
2024-02-29T13:56:25.857Z,96
2024-02-29T13:57:56.439Z,95.9
2024-02-29T13:59:26.900Z,96.2
2024-02-29T14:00:57.516Z,96
2024-02-29T14:02:28.079Z,96.1
2024-02-29T14:03:58.637Z,96.3
2024-02-29T14:05:29.083Z,96.2
2024-02-29T14:06:59.584Z,96.4
2024-02-29T14:08:30.052Z,96.3
2024-02-29T14:10:00.764Z,96.1
2024-02-29T14:11:31.842Z,96.4
2024-02-29T14:13:02.478Z,96.3
2024-02-29T14:14:33.088Z,96.2
2024-02-29T14:16:03.716Z,96.1
2024-02-29T14:17:34.405Z,96.1
2024-02-29T14:19:05.006Z,96.4
2024-02-29T14:20:35.584Z,95.9
2024-02-29T14:22:06.152Z,96.2
2024-02-29T14:23:36.854Z,96.2
2024-02-29T14:25:07.502Z,96.4
2024-02-29T14:26:38.084Z,96.1
2024-02-29T14:28:08.619Z,96.1
2024-02-29T14:29:39.443Z,96.1
2024-02-29T14:29:56.495Z,96
2024-02-29T14:31:27.210Z,96
2024-02-29T14:32:58.123Z,96.4
2024-02-29T14:34:28.649Z,96.2
2024-02-29T14:35:59.190Z,96.3
2024-02-29T14:37:29.860Z,96
2024-02-29T14:39:00.450Z,96.2
2024-02-29T14:40:31.145Z,96
2024-02-29T14:42:01.680Z,96.1
2024-02-29T14:43:32.149Z,96
2024-02-29T14:45:02.646Z,96.1
2024-02-29T14:46:33.239Z,96.2
2024-02-29T14:48:03.777Z,96.1
2024-02-29T14:49:34.259Z,96.1
2024-02-29T14:51:04.718Z,96.3
2024-02-29T14:52:40.577Z,96.5
2024-02-29T14:54:11.794Z,96.4
2024-02-29T14:55:42.322Z,96.3
2024-02-29T14:57:12.742Z,96.2
2024-02-29T14:58:43.203Z,96.1
2024-02-29T15:00:13.853Z,96.3
2024-02-29T15:03:29.235Z,96.4
2024-02-29T15:04:59.695Z,96.3
2024-02-29T15:06:30.210Z,96.2
2024-02-29T15:08:00.672Z,96.5
2024-02-29T15:09:31.420Z,96.4
2024-02-29T15:11:02.051Z,96.1
2024-02-29T15:12:32.635Z,96.5
2024-02-29T15:14:03.128Z,96.1
2024-02-29T15:15:33.596Z,96.1
2024-02-29T15:17:04.087Z,96.4
2024-02-29T15:18:34.521Z,96.6
2024-02-29T15:20:05.061Z,96.5
2024-02-29T15:21:35.552Z,96.3
2024-02-29T15:23:05.979Z,96.3
2024-02-29T15:24:36.658Z,96.3
2024-02-29T15:26:07.205Z,96.2
2024-02-29T15:27:37.634Z,96.5
2024-02-29T15:29:08.041Z,96.2
2024-02-29T15:30:38.607Z,96.3
2024-02-29T15:32:09.322Z,96.5
2024-02-29T15:33:39.750Z,96.5
2024-02-29T15:35:10.388Z,96.4
2024-02-29T15:36:40.956Z,96.2
2024-02-29T15:38:11.391Z,96.5
2024-02-29T15:39:42.004Z,96.3
2024-02-29T15:41:12.646Z,96.4
2024-02-29T15:42:43.118Z,96.1
2024-02-29T15:44:13.574Z,96.3
2024-02-29T15:45:44.223Z,96.4
2024-02-29T15:47:14.821Z,96.6
2024-02-29T15:48:45.276Z,96.3
2024-02-29T15:50:15.797Z,96.4
2024-02-29T15:51:46.359Z,96.6
2024-02-29T15:53:16.930Z,96.2
2024-02-29T15:54:47.628Z,96.4
2024-02-29T15:56:18.282Z,96.2
2024-02-29T15:57:48.711Z,96.4
2024-02-29T15:59:19.244Z,96.2
2024-02-29T16:00:49.921Z,96.4
2024-02-29T16:02:20.447Z,96.2
2024-02-29T16:03:51.188Z,96.2
2024-02-29T16:05:21.825Z,96.3
2024-02-29T16:06:52.305Z,96.4
2024-02-29T16:08:23.164Z,96.5
2024-02-29T16:09:53.886Z,96.2
2024-02-29T16:11:24.594Z,96.5
2024-02-29T16:12:55.086Z,96.2
2024-02-29T16:14:25.572Z,96.2
2024-02-29T16:15:58.642Z,96.3
2024-02-29T16:17:29.231Z,96.4
2024-02-29T16:18:59.756Z,96.4
2024-02-29T16:20:30.273Z,96.3
2024-02-29T16:22:00.843Z,96.3
2024-02-29T16:23:31.414Z,96.1
2024-02-29T16:25:02.091Z,96.3
2024-02-29T16:26:32.709Z,96.3
2024-02-29T16:28:03.203Z,96.1
2024-02-29T16:29:33.874Z,96.3
2024-02-29T16:31:04.372Z,96.4
2024-02-29T16:32:34.984Z,96.4
2024-02-29T16:34:05.493Z,96.7
2024-02-29T16:35:35.956Z,96.5
2024-02-29T16:37:06.617Z,96.2
2024-02-29T16:38:37.351Z,96.3
2024-02-29T16:40:08.248Z,96.3
2024-02-29T16:41:38.977Z,96.2
2024-02-29T16:43:09.443Z,96.4
2024-02-29T16:44:40.810Z,96.3
2024-02-29T16:46:13.374Z,96.4
2024-02-29T16:47:43.891Z,96.4
2024-02-29T16:49:14.495Z,96.2
2024-02-29T16:50:47.269Z,96.4
2024-02-29T16:52:17.961Z,96.4
2024-02-29T16:54:06.431Z,96.6
2024-02-29T16:55:37.115Z,96.4
2024-02-29T16:57:07.715Z,96.3
2024-02-29T16:58:38.200Z,96.4
2024-02-29T17:00:08.623Z,96
2024-02-29T17:01:39.355Z,96.5
2024-02-29T17:03:10.176Z,96.3
2024-02-29T17:04:40.598Z,96.1
2024-02-29T17:06:11.032Z,96.3
2024-02-29T17:07:41.546Z,96.4
2024-02-29T17:09:12.622Z,96.5
2024-02-29T17:10:43.707Z,96.4
2024-02-29T17:12:14.247Z,96.1
2024-02-29T17:13:44.762Z,96.4
2024-02-29T17:15:15.191Z,96.5
2024-02-29T17:16:45.757Z,96.6
2024-02-29T17:18:16.275Z,96.3
2024-02-29T17:19:46.745Z,96.5
2024-02-29T17:21:17.281Z,96.3
2024-02-29T17:22:47.794Z,96.6
2024-02-29T17:24:18.211Z,96.4
2024-02-29T17:25:48.798Z,96.3
2024-02-29T17:27:19.253Z,96.2
2024-02-29T17:28:49.673Z,96.4
2024-02-29T17:30:20.106Z,96.3
2024-02-29T17:31:50.625Z,96.3
2024-02-29T17:33:21.140Z,96.7
2024-02-29T17:34:51.706Z,96.1
2024-02-29T17:36:22.199Z,96.3
2024-02-29T17:37:52.734Z,96.3
2024-02-29T17:39:23.253Z,96.3
2024-02-29T17:40:54.229Z,96.3
2024-02-29T17:42:24.789Z,96.3
2024-02-29T17:43:57.992Z,96.6
2024-02-29T17:45:28.533Z,96.3
2024-02-29T17:46:59.371Z,96.3
2024-02-29T17:48:29.979Z,96.4
2024-02-29T17:50:00.509Z,96.1
2024-02-29T17:51:30.994Z,96.2
2024-02-29T17:53:01.433Z,96.1
2024-02-29T17:54:31.954Z,96.2
2024-02-29T17:56:02.532Z,96.3
2024-02-29T17:57:33.104Z,96.4
2024-02-29T17:59:03.626Z,96.1
2024-02-29T18:00:34.378Z,96.5
2024-02-29T18:02:05.161Z,96.3
2024-02-29T18:03:35.908Z,96.4
2024-02-29T18:05:06.338Z,96.4
2024-02-29T18:06:36.752Z,96.5
2024-02-29T18:08:08.583Z,96.1
2024-02-29T18:09:39.125Z,96.3
2024-02-29T18:11:09.710Z,96.4
2024-02-29T18:12:40.479Z,96.1
2024-02-29T18:14:11.300Z,96.1
2024-02-29T18:15:41.869Z,96
2024-02-29T18:17:12.351Z,96.1
2024-02-29T18:18:42.921Z,96.1
2024-02-29T18:20:13.390Z,96.3
2024-02-29T18:21:43.859Z,96.2
2024-02-29T18:23:14.536Z,96
2024-02-29T18:24:45.261Z,96.1
2024-02-29T18:26:17.796Z,95.8
2024-02-29T18:27:50.715Z,96
2024-02-29T18:29:21.218Z,96.2
2024-02-29T18:30:51.718Z,96.2
2024-02-29T18:32:22.178Z,96.2
2024-02-29T18:33:52.712Z,96.3
2024-02-29T18:35:23.448Z,96.2
2024-02-29T18:36:54.020Z,96.3
2024-02-29T18:38:24.572Z,96.1
2024-02-29T18:39:55.085Z,96.5
2024-02-29T18:41:25.780Z,96.4
2024-02-29T18:41:43.210Z,96.2
2024-02-29T18:43:13.804Z,95.9
2024-02-29T18:44:44.293Z,96.4
2024-02-29T18:46:15.176Z,96.2
2024-02-29T18:47:46.187Z,96
2024-02-29T18:49:16.828Z,96.1
2024-02-29T18:50:47.302Z,96.1
2024-02-29T18:52:17.916Z,96.2
2024-02-29T18:53:48.334Z,96
2024-02-29T18:55:19.032Z,96.4
2024-02-29T18:56:49.668Z,96.3
2024-02-29T18:58:20.385Z,96.2
2024-02-29T18:59:50.941Z,96.4
2024-02-29T19:01:21.564Z,96.5
2024-02-29T19:02:52.208Z,96.3
2024-02-29T19:04:22.671Z,96.3
2024-02-29T19:05:53.226Z,96.3
2024-02-29T19:07:27.774Z,95.9
2024-02-29T19:08:58.622Z,96.1
2024-02-29T19:10:29.146Z,96.2
2024-02-29T19:12:00.090Z,96.1
2024-02-29T19:13:30.606Z,96.5
2024-02-29T19:15:01.170Z,96.1
2024-02-29T19:16:31.646Z,96.2
2024-02-29T19:18:02.445Z,96.1
2024-02-29T19:19:33.095Z,96.2
2024-02-29T19:21:03.820Z,96.1
2024-02-29T19:22:37.114Z,96.3
2024-02-29T19:24:07.695Z,96.2
2024-02-29T19:25:38.236Z,96.2
2024-02-29T19:27:09.007Z,96.2
2024-02-29T19:28:39.576Z,96.5
2024-02-29T19:30:10.005Z,96.2
2024-02-29T19:31:40.516Z,96.2
2024-02-29T19:33:10.985Z,96
2024-02-29T19:34:41.581Z,96.2
2024-02-29T19:36:12.106Z,96
2024-02-29T19:37:42.606Z,96.2
2024-02-29T19:39:13.061Z,96.2
2024-02-29T19:40:43.551Z,96.3
2024-02-29T19:42:14.229Z,96
2024-02-29T19:43:44.831Z,96.3
2024-02-29T19:45:15.318Z,96.3
2024-02-29T19:46:45.789Z,96.7
2024-02-29T19:48:16.292Z,96.3
2024-02-29T19:49:46.930Z,96.4
2024-02-29T19:51:17.419Z,96.2
2024-02-29T19:52:47.854Z,96.1
2024-02-29T19:54:18.362Z,95.8
2024-02-29T19:55:48.886Z,96.6
2024-02-29T19:57:19.666Z,96.3
2024-02-29T19:58:50.261Z,96.1
2024-02-29T20:00:20.748Z,96.1
2024-02-29T20:01:51.218Z,96.3
2024-02-29T20:03:21.701Z,96.1
2024-02-29T20:04:52.171Z,96.2
2024-02-29T20:06:22.640Z,96.4
2024-02-29T20:07:53.081Z,96.2
2024-02-29T20:09:23.578Z,96
2024-02-29T20:10:54.060Z,95.9
2024-02-29T20:12:25.065Z,96
2024-02-29T20:13:55.779Z,96.4
2024-02-29T20:15:26.184Z,96.1
2024-02-29T20:16:56.613Z,96.2
2024-02-29T20:18:27.132Z,96.4
2024-02-29T20:19:57.541Z,96.1